Time;durP1;ratioP1;P1;durP2;ratioP2;P2;SDS_P1;SDS_P2;PMS_P1;PMS_P2;Temp;Humidity;BMP_temperature;BMP_pressure;BME280_temperature;BME280_humidity;BME280_pressure;Samples;Min_cycle;Max_cycle;Signal;HPM_P1;HPM_P2
2021/12/20 00:00:41;;;;;;;24.23;6.65;;;;;;;9.31;63.17;102969.41;5154148;28;20415;-45
2021/12/20 00:03:15;;;;;;;27.50;6.30;;;;;;;9.30;63.22;102967.72;5160253;28;20768;-44
2021/12/20 00:05:47;;;;;;;31.73;6.90;;;;;;;9.27;63.24;102967.91;5152314;28;20414;-48
2021/12/20 00:08:20;;;;;;;25.70;5.80;;;;;;;9.27;63.08;102967.91;5156332;28;20804;-46
2021/12/20 00:10:52;;;;;;;32.72;7.00;;;;;;;9.29;63.12;102974.78;5158874;28;20448;-43
2021/12/20 00:13:25;;;;;;;28.80;6.70;;;;;;;9.31;63.06;102974.69;5153642;28;20420;-42
2021/12/20 00:15:58;;;;;;;39.50;8.05;;;;;;;9.32;62.95;102966.69;5149026;28;20424;-42
2021/12/20 00:18:31;;;;;;;31.33;7.18;;;;;;;9.33;63.00;102967.53;5162251;28;20421;-48
2021/12/20 00:21:03;;;;;;;44.53;7.93;;;;;;;9.31;62.76;102972.06;5154471;28;20428;-43
2021/12/20 00:23:36;;;;;;;33.35;7.45;;;;;;;9.29;62.78;102963.38;5157068;28;20445;-44
2021/12/20 00:26:09;;;;;;;33.50;7.60;;;;;;;9.29;62.84;102964.25;5155806;28;20423;-44
2021/12/20 00:28:43;;;;;;;30.92;7.78;;;;;;;8.98;62.71;102904.50;5157144;28;20441;-44
2021/12/20 00:31:16;;;;;;;30.10;7.40;;;;;;;9.26;62.78;102963.53;5156645;28;20432;-45
2021/12/20 00:33:48;;;;;;;25.58;6.65;;;;;;;9.23;62.79;102951.41;5158843;28;20427;-45
2021/12/20 00:36:22;;;;;;;34.77;7.20;;;;;;;9.20;62.85;102947.16;5162615;28;20503;-44
2021/12/20 00:41:44;;;;;;;26.70;6.90;;;;;;;9.21;62.81;102963.81;5162751;28;20414;-45
2021/12/20 00:44:18;;;;;;;38.73;8.83;;;;;;;9.22;62.64;102961.09;5161542;28;20608;-39
2021/12/20 00:46:51;;;;;;;31.10;8.65;;;;;;;9.24;62.54;102961.84;5159749;28;20413;-44
2021/12/20 00:49:23;;;;;;;25.60;6.68;;;;;;;9.21;62.47;102946.22;5162640;28;20427;-44
2021/12/20 00:51:55;;;;;;;34.65;7.15;;;;;;;9.27;62.37;102955.56;5160798;28;20431;-43
2021/12/20 00:54:28;;;;;;;28.17;6.63;;;;;;;9.25;62.39;102949.53;5162196;28;20425;-44
2021/12/20 00:57:00;;;;;;;40.72;7.63;;;;;;;9.23;62.32;102957.53;5161980;28;20436;-43
2021/12/20 00:59:34;;;;;;;35.25;7.53;;;;;;;9.26;62.24;102950.38;5162379;28;20443;-43
2021/12/20 01:02:09;;;;;;;31.17;7.07;;;;;;;9.26;62.07;102950.38;5164173;28;20804;-43
2021/12/20 01:04:41;;;;;;;31.00;6.95;;;;;;;9.26;62.03;102939.81;5161809;28;20516;-44
2021/12/20 01:07:14;;;;;;;28.42;7.13;;;;;;;9.26;62.03;102948.59;5159935;28;20416;-45
2021/12/20 01:09:46;;;;;;;40.72;7.32;;;;;;;9.22;62.00;102945.28;5157828;28;20496;-43
2021/12/20 01:12:20;;;;;;;29.83;7.82;;;;;;;9.21;61.76;102948.00;5152080;28;20424;-45
2021/12/20 01:14:59;;;;;;;32.05;7.40;;;;;;;9.12;61.95;102940.63;5154417;28;20420;-43
2021/12/20 01:17:31;;;;;;;28.20;6.82;;;;;;;9.19;61.88;102948.09;5161683;28;20428;-43
2021/12/20 01:20:06;;;;;;;35.92;7.15;;;;;;;9.18;61.91;102943.75;5165340;28;20957;-46
2021/12/20 01:22:38;;;;;;;39.70;8.63;;;;;;;9.16;61.86;102935.09;5162777;28;20484;-47
2021/12/20 01:25:11;;;;;;;32.92;7.15;;;;;;;9.00;61.95;102931.63;5161899;28;20409;-44
2021/12/20 01:27:44;;;;;;;33.05;7.68;;;;;;;9.06;62.24;102944.47;5166320;28;20423;-47
2021/12/20 01:30:22;;;;;;;55.17;8.50;;;;;;;9.03;61.97;102955.19;5160787;28;20500;-43
2021/12/20 01:32:55;;;;;;;31.17;7.22;;;;;;;8.93;62.14;102938.22;5156101;28;20505;-44
2021/12/20 01:35:29;;;;;;;36.15;8.15;;;;;;;8.96;62.03;102928.34;5161450;28;20409;-44
2021/12/20 01:38:01;;;;;;;41.60;9.02;;;;;;;9.01;61.99;102941.22;5161016;28;20417;-44
2021/12/20 01:40:35;;;;;;;41.63;8.18;;;;;;;9.03;61.89;102939.38;5163077;28;20436;-46
2021/12/20 01:43:11;;;;;;;29.92;7.78;;;;;;;9.07;61.79;102940.88;5158224;28;20853;-43
2021/12/20 01:45:48;;;;;;;41.78;7.95;;;;;;;9.09;61.60;102946.94;5160714;28;20428;-46
2021/12/20 01:48:21;;;;;;;31.50;7.88;;;;;;;9.11;61.55;102946.84;5160449;28;20801;-44
2021/12/20 01:51:17;;;;;;;33.22;7.97;;;;;;;9.06;61.51;102936.56;5159276;28;20516;-44
2021/12/20 01:53:50;;;;;;;31.63;7.40;;;;;;;9.11;61.41;102929.25;5155135;28;20428;-44
2021/12/20 01:56:22;;;;;;;36.90;8.35;;;;;;;9.15;61.39;102933.38;5165718;28;20417;-45
2021/12/20 01:59:03;;;;;;;31.45;7.75;;;;;;;9.14;61.36;102936.13;5159601;28;20458;-44
2021/12/20 02:01:37;;;;;;;32.67;7.43;;;;;;;9.14;61.37;102920.31;5159453;28;20429;-47
2021/12/20 02:04:10;;;;;;;38.80;8.18;;;;;;;9.15;61.37;102925.47;5161634;28;20425;-45
2021/12/20 02:06:46;;;;;;;31.67;8.45;;;;;;;9.16;61.22;102926.31;5152657;28;20494;-44
2021/12/20 02:09:21;;;;;;;32.85;8.85;;;;;;;9.14;61.22;102931.69;5158082;28;20425;-46
2021/12/20 02:11:53;;;;;;;41.05;9.02;;;;;;;9.13;61.33;102919.44;5162271;28;20420;-44
2021/12/20 02:14:26;;;;;;;34.75;8.15;;;;;;;9.14;61.37;102926.44;5152046;28;20422;-43
2021/12/20 02:17:00;;;;;;;36.15;7.90;;;;;;;9.08;61.38;102926.78;5162704;28;20789;-43
2021/12/20 02:19:32;;;;;;;40.63;7.55;;;;;;;9.08;61.46;102939.13;5161533;28;20508;-44
2021/12/20 02:22:06;;;;;;;35.67;8.50;;;;;;;9.09;61.34;102939.03;5150201;28;20436;-44
2021/12/20 02:24:38;;;;;;;36.55;7.53;;;;;;;9.10;61.24;102938.06;5159263;28;20396;-45
2021/12/20 02:27:11;;;;;;;35.58;9.45;;;;;;;9.07;61.35;102930.34;5157839;28;20400;-44
2021/12/20 02:29:58;;;;;;;40.85;8.38;;;;;;;9.06;61.31;102933.94;5146281;28;20788;-45
2021/12/20 02:38:30;;;;;;;36.60;8.73;;;;;;;9.08;61.28;102920.66;5146101;28;21603;-43
2021/12/20 02:41:08;;;;;;;36.33;8.45;;;;;;;9.07;61.36;102925.06;5164255;28;20437;-45
2021/12/20 02:43:43;;;;;;;34.80;8.55;;;;;;;9.07;61.24;102925.06;5157292;28;20904;-51
2021/12/20 02:46:29;;;;;;;32.88;8.50;;;;;;;9.08;61.23;102918.03;5157411;28;20495;-44
2021/12/20 02:49:16;;;;;;;38.83;7.45;;;;;;;9.06;61.21;102918.09;5137987;28;20413;-43
2021/12/20 02:51:52;;;;;;;34.33;9.27;;;;;;;9.06;61.17;102922.53;5150879;28;20409;-50
2021/12/20 02:54:26;;;;;;;37.67;7.27;;;;;;;9.10;61.23;102924.03;5149665;28;20441;-44
2021/12/20 02:56:58;;;;;;;32.90;7.78;;;;;;;9.09;61.13;102919.72;5147833;28;20426;-47
2021/12/20 02:59:31;;;;;;;31.07;7.37;;;;;;;9.05;61.28;102916.41;5154758;28;20463;-43
2021/12/20 03:02:07;;;;;;;39.83;8.73;;;;;;;9.02;61.25;102911.31;5151239;28;20425;-44
2021/12/20 03:04:40;;;;;;;37.70;8.93;;;;;;;9.01;61.32;102912.25;5155639;28;20451;-42
2021/12/20 03:07:21;;;;;;;37.63;7.22;;;;;;;9.00;61.33;102913.19;5157801;28;20504;-42
2021/12/20 03:10:00;;;;;;;32.13;6.57;;;;;;;8.99;61.33;102909.72;5149836;28;20413;-44
2021/12/20 03:12:33;;;;;;;31.93;7.57;;;;;;;8.99;61.21;102903.59;5161068;28;20841;-43
2021/12/20 03:15:13;;;;;;;37.03;7.53;;;;;;;8.97;61.38;102910.72;5141547;28;23138;-43
2021/12/20 03:17:46;;;;;;;33.13;7.55;;;;;;;8.99;61.34;102906.22;5154835;28;20409;-44
2021/12/20 03:20:18;;;;;;;35.50;7.10;;;;;;;8.99;61.21;102916.78;5150667;28;20433;-51
2021/12/20 03:22:50;;;;;;;41.13;7.95;;;;;;;8.99;61.16;102914.13;5150866;28;20481;-45
2021/12/20 03:25:24;;;;;;;33.80;7.23;;;;;;;8.94;61.34;102914.38;5159959;28;20427;-46
2021/12/20 03:27:57;;;;;;;35.70;7.20;;;;;;;8.88;61.21;102898.09;5164350;28;20413;-44
2021/12/20 03:30:29;;;;;;;34.28;6.93;;;;;;;8.94;61.14;102908.28;5153727;28;20416;-43
2021/12/20 03:33:01;;;;;;;33.23;6.97;;;;;;;8.96;61.02;102916.94;5152814;28;20454;-46
2021/12/20 03:35:34;;;;;;;33.17;7.18;;;;;;;8.98;61.11;102917.69;5157972;28;20413;-44
2021/12/20 03:38:07;;;;;;;31.55;7.93;;;;;;;8.98;61.04;102912.41;5148717;28;20537;-43
2021/12/20 03:40:40;;;;;;;33.60;6.93;;;;;;;8.62;60.95;102847.75;5154851;28;20452;-44
2021/12/20 03:43:13;;;;;;;32.80;6.55;;;;;;;8.99;60.93;102912.34;5162186;28;20413;-43
2021/12/20 03:45:49;;;;;;;40.20;8.45;;;;;;;8.98;61.04;102915.06;5167483;28;20409;-44
2021/12/20 03:48:21;;;;;;;29.08;7.13;;;;;;;8.97;61.04;102918.63;5158974;28;20552;-43
2021/12/20 03:51:25;;;;;;;40.00;7.80;;;;;;;8.92;61.03;102920.69;5159156;28;20447;-45
2021/12/20 03:53:57;;;;;;;44.63;7.47;;;;;;;8.84;61.30;102913.22;5158385;28;20757;-44
2021/12/20 03:56:31;;;;;;;37.97;7.95;;;;;;;8.86;61.16;102911.38;5161078;28;20421;-45
2021/12/20 03:59:04;;;;;;;36.27;7.67;;;;;;;8.89;61.07;102908.56;5161584;28;20457;-44
2021/12/20 04:01:36;;;;;;;31.02;6.78;;;;;;;8.87;61.05;102912.22;5166040;28;20769;-45
2021/12/20 04:04:08;;;;;;;29.97;6.73;;;;;;;8.84;61.07;102912.38;5168712;28;20419;-43
2021/12/20 04:06:41;;;;;;;26.40;7.03;;;;;;;8.82;61.12;102908.97;5160634;28;20427;-44
2021/12/20 04:09:13;;;;;;;27.42;6.30;;;;;;;8.72;61.06;102892.84;5169726;28;20897;-44
2021/12/20 04:11:47;;;;;;;30.92;7.28;;;;;;;8.81;61.03;102908.13;5169112;28;20425;-44
2021/12/20 04:14:19;;;;;;;35.97;7.07;;;;;;;8.84;60.86;102907.97;5159795;28;20417;-43
2021/12/20 04:16:52;;;;;;;31.20;6.78;;;;;;;8.90;60.77;102914.66;5126613;28;20414;-44
2021/12/20 04:19:24;;;;;;;38.45;7.15;;;;;;;8.90;60.66;102906.75;5128878;28;20999;-44
2021/12/20 04:21:56;;;;;;;41.17;8.57;;;;;;;8.93;60.61;102901.31;5130339;28;20432;-44
2021/12/20 04:24:29;;;;;;;35.67;7.63;;;;;;;8.80;60.62;102889.78;5126699;28;20530;-44
2021/12/20 04:27:03;;;;;;;27.90;5.60;;;;;;;8.64;60.99;102903.84;5128014;28;20519;-47
2021/12/20 04:29:35;;;;;;;22.23;4.93;;;;;;;8.64;60.99;102901.19;5128260;28;20432;-45
2021/12/20 04:32:08;;;;;;;21.17;5.30;;;;;;;8.65;61.09;102907.31;5129347;28;20945;-45
2021/12/20 04:34:41;;;;;;;23.63;5.80;;;;;;;8.65;60.96;102913.44;5123282;28;20426;-45
2021/12/20 04:37:13;;;;;;;22.33;5.25;;;;;;;8.70;60.82;102910.50;5132623;28;20416;-44
2021/12/20 04:39:46;;;;;;;24.80;6.05;;;;;;;8.72;60.33;102904.22;5130738;28;20772;-44
2021/12/20 04:42:19;;;;;;;25.00;5.88;;;;;;;8.81;60.28;102904.66;5123507;28;20448;-49
2021/12/20 04:44:52;;;;;;;21.83;5.60;;;;;;;8.86;60.19;102907.88;5126934;28;21010;-44
2021/12/20 04:47:24;;;;;;;24.20;5.82;;;;;;;8.83;59.83;102897.53;5118738;28;20896;-44
2021/12/20 04:49:56;;;;;;;24.65;5.40;;;;;;;8.85;59.91;102907.00;5128732;28;20523;-44
2021/12/20 04:52:29;;;;;;;26.35;5.30;;;;;;;8.78;60.23;102898.63;5120271;28;20434;-44
2021/12/20 04:55:01;;;;;;;32.13;5.85;;;;;;;8.74;59.98;102902.38;5120541;28;20464;-47
2021/12/20 04:57:35;;;;;;;21.20;5.72;;;;;;;8.78;59.72;102903.03;5124273;28;20428;-45
2021/12/20 05:00:13;;;;;;;17.40;5.40;;;;;;;8.83;59.54;102905.44;5121856;28;20452;-42
2021/12/20 05:02:45;;;;;;;25.58;5.45;;;;;;;8.88;59.39;102908.63;5118763;28;20412;-44
2021/12/20 05:05:18;;;;;;;22.00;5.00;;;;;;;8.89;59.17;102911.19;5124450;28;20453;-45
2021/12/20 05:07:53;;;;;;;26.45;5.32;;;;;;;8.83;59.42;102905.44;5116659;28;20515;-45
2021/12/20 05:10:29;;;;;;;24.52;5.47;;;;;;;8.82;59.39;102922.16;5122453;28;20467;-43
2021/12/20 05:13:05;;;;;;;28.27;5.75;;;;;;;8.75;59.33;102906.69;5123971;28;20435;-44
2021/12/20 05:15:39;;;;;;;16.10;4.78;;;;;;;8.77;59.19;102902.19;5134213;28;22651;-43
2021/12/20 05:18:11;;;;;;;17.40;5.07;;;;;;;8.82;59.22;102914.25;5162641;28;20757;-43
2021/12/20 05:20:44;;;;;;;25.02;5.40;;;;;;;8.85;58.96;102914.06;5160740;28;20417;-43
2021/12/20 05:23:17;;;;;;;21.92;4.93;;;;;;;8.85;58.99;102914.06;5157895;28;20499;-44
2021/12/20 05:25:49;;;;;;;22.73;5.28;;;;;;;8.83;58.94;102916.81;5158092;28;20413;-50
2021/12/20 05:28:23;;;;;;;20.45;4.70;;;;;;;8.83;58.73;102915.97;5157380;28;20434;-44
2021/12/20 05:30:55;;;;;;;18.05;5.15;;;;;;;8.82;58.79;102919.50;5159607;28;20412;-43
2021/12/20 05:33:28;;;;;;;21.80;5.72;;;;;;;8.82;58.81;102924.78;5162550;28;20430;-46
2021/12/20 05:36:00;;;;;;;21.83;5.45;;;;;;;8.78;58.72;102919.69;5160884;28;20421;-43
2021/12/20 05:38:32;;;;;;;19.77;5.70;;;;;;;8.82;58.67;102922.16;5147626;28;20433;-46
2021/12/20 05:41:05;;;;;;;21.08;6.18;;;;;;;8.80;58.61;102921.41;5160378;28;20425;-44
2021/12/20 05:43:38;;;;;;;18.27;4.70;;;;;;;8.80;58.64;102918.78;5156733;28;20438;-44
2021/12/20 05:46:11;;;;;;;18.08;5.13;;;;;;;8.76;58.58;102916.31;5166084;28;20749;-44
2021/12/20 05:48:43;;;;;;;30.10;5.88;;;;;;;8.79;58.51;102925.81;5162241;28;20405;-44
2021/12/20 05:51:16;;;;;;;20.93;5.47;;;;;;;8.76;58.59;102920.69;5153299;28;20507;-44
2021/12/20 05:53:48;;;;;;;21.63;5.10;;;;;;;8.75;58.48;102925.13;5159771;28;20733;-46
2021/12/20 05:56:21;;;;;;;27.90;4.97;;;;;;;8.71;58.51;102923.63;5156695;28;20404;-44
2021/12/20 05:58:54;;;;;;;25.33;4.93;;;;;;;8.73;58.54;102920.88;5151608;28;20405;-44
2021/12/20 06:01:27;;;;;;;21.52;5.20;;;;;;;8.74;58.54;102920.81;5156315;28;20402;-44
2021/12/20 06:03:59;;;;;;;20.17;5.45;;;;;;;8.77;58.39;102919.78;5157010;28;20424;-43
2021/12/20 06:06:32;;;;;;;26.58;5.55;;;;;;;8.81;58.45;102917.81;5161902;28;21035;-46
2021/12/20 06:09:04;;;;;;;18.55;4.78;;;;;;;8.83;58.26;102921.22;5150322;28;20924;-43
2021/12/20 06:11:36;;;;;;;22.42;5.05;;;;;;;8.81;58.29;102933.63;5155648;28;20454;-44
2021/12/20 06:14:10;;;;;;;19.05;4.78;;;;;;;8.78;58.36;102927.59;5165010;28;20427;-44
2021/12/20 06:16:44;;;;;;;19.20;4.88;;;;;;;8.72;58.42;102933.22;5155518;28;20976;-44
2021/12/20 06:19:16;;;;;;;15.82;5.03;;;;;;;8.70;58.46;102928.94;5155252;28;20577;-53
2021/12/20 06:21:48;;;;;;;19.10;4.57;;;;;;;8.69;58.42;102925.47;5162529;28;20424;-46
2021/12/20 06:24:21;;;;;;;21.67;4.30;;;;;;;8.75;58.37;102930.41;5157409;28;20400;-44
2021/12/20 06:26:53;;;;;;;18.83;4.88;;;;;;;8.80;58.18;102939.84;5151988;28;20911;-45
2021/12/20 06:29:28;;;;;;;19.50;4.27;;;;;;;8.77;58.11;102936.44;5159877;28;20423;-43
2021/12/20 06:32:01;;;;;;;19.23;5.07;;;;;;;8.74;58.23;102933.97;5149237;28;20434;-42
2021/12/20 06:34:33;;;;;;;15.32;3.63;;;;;;;8.60;58.33;102931.25;5155699;28;20413;-44
2021/12/20 06:37:07;;;;;;;16.85;3.90;;;;;;;8.64;58.25;102942.47;5160817;28;20425;-45
2021/12/20 06:39:39;;;;;;;14.48;3.88;;;;;;;8.60;58.36;102939.16;5157669;28;20941;-44
2021/12/20 06:42:11;;;;;;;16.83;3.92;;;;;;;8.54;58.48;102950.03;5157373;28;20409;-44
2021/12/20 06:44:45;;;;;;;16.50;4.07;;;;;;;8.54;58.45;102963.19;5156558;28;20769;-45
2021/12/20 06:47:21;;;;;;;17.52;4.40;;;;;;;8.41;58.54;102952.50;5155471;28;20438;-44
2021/12/20 06:49:53;;;;;;;16.77;4.20;;;;;;;8.30;58.67;102950.44;5155133;28;20430;-44
2021/12/20 06:52:25;;;;;;;19.67;4.83;;;;;;;8.27;58.74;102950.59;5147233;28;20942;-44
2021/12/20 06:54:58;;;;;;;17.38;5.00;;;;;;;8.28;58.87;102952.28;5156271;28;20465;-46
2021/12/20 06:57:30;;;;;;;15.02;4.15;;;;;;;8.23;58.92;102950.81;5154483;28;20901;-43
2021/12/20 07:00:05;;;;;;;15.63;4.07;;;;;;;8.16;58.92;102952.94;5155209;28;20861;-44
2021/12/20 07:02:38;;;;;;;15.32;4.45;;;;;;;8.13;58.96;102947.84;5154876;28;22019;-45
2021/12/20 07:05:11;;;;;;;14.20;4.20;;;;;;;8.18;58.72;102961.63;5149373;28;20493;-43
2021/12/20 07:07:43;;;;;;;13.13;3.50;;;;;;;8.20;58.93;102954.47;5152665;28;20444;-43
2021/12/20 07:10:16;;;;;;;20.33;4.18;;;;;;;8.23;58.73;102943.78;5145789;28;20419;-45
2021/12/20 07:12:48;;;;;;;16.10;4.63;;;;;;;8.29;58.89;102947.88;5154627;28;21324;-44
2021/12/20 07:15:24;;;;;;;17.83;4.30;;;;;;;8.30;58.89;102960.97;5163128;28;20543;-43
2021/12/20 07:17:56;;;;;;;21.80;4.20;;;;;;;8.29;58.95;102964.50;5159557;28;20423;-43
2021/12/20 07:20:28;;;;;;;14.32;3.75;;;;;;;8.29;59.10;102958.41;5162783;28;20508;-43
2021/12/20 07:23:01;;;;;;;15.75;4.78;;;;;;;8.26;59.03;102942.75;5148673;28;20421;-44
2021/12/20 07:25:33;;;;;;;15.15;3.72;;;;;;;8.28;59.07;102941.75;5159134;28;20423;-44
2021/12/20 07:28:07;;;;;;;12.23;3.45;;;;;;;8.34;59.16;102958.16;5159680;28;20436;-43
2021/12/20 07:30:41;;;;;;;16.67;5.17;;;;;;;8.28;59.15;102954.06;5147410;28;20894;-44
2021/12/20 07:33:15;;;;;;;11.15;3.90;;;;;;;8.13;59.23;102942.56;5161417;28;20417;-45
2021/12/20 07:35:48;;;;;;;15.57;3.97;;;;;;;8.21;59.32;102958.81;5153362;28;20422;-42
2021/12/20 07:38:21;;;;;;;11.93;4.40;;;;;;;8.17;59.42;102965.16;5157972;28;20431;-44
2021/12/20 07:40:54;;;;;;;14.10;3.43;;;;;;;8.03;59.39;102949.28;5165065;28;20523;-43
2021/12/20 07:43:26;;;;;;;13.73;3.60;;;;;;;7.77;59.57;102901.53;5160643;28;20528;-43
2021/12/20 07:46:01;;;;;;;14.95;4.72;;;;;;;8.08;59.47;102961.25;5167944;28;20429;-44
2021/12/20 07:48:34;;;;;;;12.00;3.33;;;;;;;8.07;59.39;102966.59;5165698;28;20423;-44
2021/12/20 07:51:06;;;;;;;12.30;3.03;;;;;;;7.97;59.55;102957.50;5162047;28;20421;-47
2021/12/20 07:53:39;;;;;;;13.45;3.55;;;;;;;8.02;59.64;102963.34;5162051;28;20409;-45
2021/12/20 07:56:12;;;;;;;12.52;3.38;;;;;;;7.98;59.68;102969.72;5156502;28;20872;-44
2021/12/20 07:58:45;;;;;;;15.55;4.30;;;;;;;7.92;59.68;102970.88;5162983;28;20774;-44
2021/12/20 08:01:19;;;;;;;10.25;3.90;;;;;;;7.86;59.90;102976.44;5154639;28;20971;-43
2021/12/20 08:03:51;;;;;;;14.80;4.18;;;;;;;7.85;59.90;102965.09;5156675;28;20885;-44
2021/12/20 08:06:23;;;;;;;18.60;3.95;;;;;;;7.83;59.97;102969.59;5151297;28;20436;-45
2021/12/20 08:08:56;;;;;;;11.00;4.03;;;;;;;7.77;60.06;102977.81;5165804;28;20531;-44
2021/12/20 08:11:28;;;;;;;11.73;3.63;;;;;;;7.74;60.20;102980.59;5163912;28;20439;-43
2021/12/20 08:14:00;;;;;;;15.17;4.27;;;;;;;7.73;60.15;102965.72;5159911;28;20923;-42
2021/12/20 08:16:34;;;;;;;11.90;3.72;;;;;;;7.73;60.23;102975.41;5158729;28;20447;-44
2021/12/20 08:19:07;;;;;;;17.63;4.33;;;;;;;7.70;60.34;102979.03;5162298;28;20427;-45
2021/12/20 08:21:39;;;;;;;14.15;3.92;;;;;;;7.74;60.31;102987.59;5169225;28;20400;-44
2021/12/20 08:24:11;;;;;;;12.20;3.60;;;;;;;7.67;60.49;102981.81;5159082;28;20421;-44
2021/12/20 08:26:44;;;;;;;8.90;4.25;;;;;;;7.68;60.42;102988.78;5168577;28;20409;-45
2021/12/20 08:29:16;;;;;;;10.50;3.33;;;;;;;7.68;60.44;102994.06;5160725;28;20899;-45
2021/12/20 08:31:50;;;;;;;14.00;3.55;;;;;;;7.70;60.44;102992.19;5153997;28;20788;-36
2021/12/20 08:34:22;;;;;;;14.25;4.03;;;;;;;7.70;60.31;102986.91;5162300;28;20416;-45
2021/12/20 08:36:54;;;;;;;15.20;3.80;;;;;;;7.68;60.49;102978.28;5161928;28;20427;-43
2021/12/20 08:39:26;;;;;;;13.60;3.58;;;;;;;7.76;60.29;102991.88;5156274;28;20453;-45
2021/12/20 08:41:59;;;;;;;17.27;4.68;;;;;;;7.83;60.18;102998.53;5157896;28;20407;-46
2021/12/20 08:44:34;;;;;;;17.08;4.60;;;;;;;7.86;60.27;103011.50;5169399;28;20786;-43
2021/12/20 08:47:08;;;;;;;18.33;4.30;;;;;;;7.89;60.16;102993.88;5164528;28;20440;-43
2021/12/20 08:49:40;;;;;;;12.75;3.60;;;;;;;7.92;60.28;102991.91;5167346;28;20882;-44
2021/12/20 08:52:13;;;;;;;13.77;4.03;;;;;;;7.95;60.18;103002.28;5154282;28;20424;-46
2021/12/20 08:54:46;;;;;;;9.10;3.63;;;;;;;7.94;60.26;102999.75;5168370;28;20432;-44
2021/12/20 08:57:19;;;;;;;12.68;3.35;;;;;;;7.91;60.49;102997.28;5162108;28;20421;-48
2021/12/20 08:59:51;;;;;;;16.58;3.88;;;;;;;7.93;60.53;102998.03;5169319;28;20764;-43
2021/12/20 09:02:25;;;;;;;10.23;3.17;;;;;;;7.89;60.57;103004.38;5158757;28;20505;-44
2021/12/20 09:04:57;;;;;;;15.25;4.40;;;;;;;7.85;60.72;102991.38;5162628;28;20417;-43
2021/12/20 09:07:30;;;;;;;8.40;3.40;;;;;;;7.87;60.58;102991.31;5162770;28;20947;-43
2021/12/20 09:10:02;;;;;;;12.73;3.50;;;;;;;7.88;60.79;102995.66;5161736;28;20430;-43
2021/12/20 09:12:35;;;;;;;15.93;3.17;;;;;;;7.85;60.71;103001.91;5152071;28;20645;-44
2021/12/20 09:15:09;;;;;;;13.15;3.75;;;;;;;7.83;60.81;102993.28;5159978;28;20428;-43
2021/12/20 09:17:43;;;;;;;8.45;3.10;;;;;;;7.93;60.71;103000.66;5168322;28;20397;-43
2021/12/20 09:20:20;;;;;;;11.55;3.22;;;;;;;7.99;60.54;103001.22;5163387;28;20772;-44
2021/12/20 09:22:54;;;;;;;8.33;3.33;;;;;;;8.07;60.49;103001.66;5166647;28;20526;-43
2021/12/20 09:25:28;;;;;;;11.30;3.63;;;;;;;8.19;60.35;103000.16;5165161;28;20436;-42
2021/12/20 09:28:03;;;;;;;11.23;3.78;;;;;;;8.29;60.10;103001.38;5163519;28;20428;-43
2021/12/20 09:30:36;;;;;;;11.27;3.05;;;;;;;8.36;60.23;103006.31;5165670;28;20425;-44
2021/12/20 09:33:10;;;;;;;19.75;7.28;;;;;;;8.41;60.19;103009.56;5150865;28;20415;-44
2021/12/20 09:35:43;;;;;;;12.02;4.30;;;;;;;8.45;60.20;103008.47;5166507;28;20419;-45
2021/12/20 09:38:17;;;;;;;12.30;3.70;;;;;;;8.51;60.08;102998.44;5159616;28;20424;-48
2021/12/20 09:41:13;;;;;;;12.35;3.60;;;;;;;8.49;60.12;103010.03;5156123;28;20416;-48
2021/12/20 09:43:49;;;;;;;14.50;3.75;;;;;;;8.44;60.27;103002.34;5168430;28;20423;-43
2021/12/20 09:46:24;;;;;;;6.35;3.15;;;;;;;8.55;60.23;103017.59;5163547;28;20417;-44
2021/12/20 09:48:58;;;;;;;11.63;3.40;;;;;;;8.56;60.21;103019.28;5165808;28;20433;-45
2021/12/20 09:51:31;;;;;;;15.35;3.97;;;;;;;8.53;60.46;103014.19;5167297;28;20933;-43
2021/12/20 09:54:04;;;;;;;14.90;3.70;;;;;;;8.45;60.46;103008.47;5162230;28;20791;-44
2021/12/20 09:56:40;;;;;;;8.18;3.50;;;;;;;8.57;60.43;103007.81;5157298;28;20417;-44
2021/12/20 09:59:19;;;;;;;10.15;2.70;;;;;;;8.59;60.22;103013.84;5157691;28;20421;-44
2021/12/20 10:01:57;;;;;;;8.35;2.72;;;;;;;8.59;60.27;103023.53;5156984;28;20767;-45
2021/12/20 10:04:31;;;;;;;12.77;4.20;;;;;;;8.57;60.28;103020.13;5164390;28;20462;-44
2021/12/20 10:07:04;;;;;;;8.07;3.17;;;;;;;8.62;60.22;103021.59;5161988;28;20427;-43
2021/12/20 10:10:05;;;;;;;7.43;2.42;;;;;;;8.71;59.96;103018.44;5152959;28;20463;-44
2021/12/20 10:12:51;;;;;;;10.93;2.90;;;;;;;8.77;59.91;103023.38;5156355;28;20432;-44
2021/12/20 10:18:43;;;;;;;11.82;4.43;;;;;;;8.96;59.59;103030.28;5150044;28;20410;-44
2021/12/20 10:21:18;;;;;;;10.98;4.07;;;;;;;9.05;59.47;103021.84;5157315;28;20446;-45
2021/12/20 10:23:51;;;;;;;8.57;2.97;;;;;;;9.12;59.39;103023.19;5152466;28;20437;-48
2021/12/20 10:26:23;;;;;;;6.87;2.60;;;;;;;9.17;59.34;103026.44;5158021;28;20911;-45
2021/12/20 10:28:55;;;;;;;9.70;3.28;;;;;;;9.14;59.24;103026.59;5156049;28;20448;-44
2021/12/20 10:31:28;;;;;;;10.82;2.88;;;;;;;9.14;59.35;103020.50;5161788;28;21486;-44
2021/12/20 10:34:03;;;;;;;9.45;3.17;;;;;;;9.16;59.22;103029.97;5164728;28;20828;-44
2021/12/20 10:36:37;;;;;;;7.97;3.10;;;;;;;9.13;59.36;103024.03;5163873;28;20790;-44
2021/12/20 10:39:09;;;;;;;5.70;3.05;;;;;;;9.10;59.39;103027.69;5160979;28;20428;-43
2021/12/20 10:41:49;;;;;;;9.32;2.53;;;;;;;9.06;59.59;103026.19;5163538;28;20437;-44
2021/12/20 10:44:24;;;;;;;7.88;2.60;;;;;;;9.13;59.32;103029.31;5161231;28;20429;-46
2021/12/20 10:46:57;;;;;;;7.40;2.30;;;;;;;9.12;59.31;103022.34;5164361;28;20522;-44
2021/12/20 10:49:31;;;;;;;10.90;3.03;;;;;;;9.07;59.38;103017.31;5156083;28;20426;-44
2021/12/20 10:52:06;;;;;;;7.95;3.03;;;;;;;9.08;59.49;103018.19;5157453;28;20474;-46
2021/12/20 10:54:44;;;;;;;8.90;2.97;;;;;;;9.15;59.35;103011.63;5160217;28;20500;-46
2021/12/20 10:57:28;;;;;;;10.50;3.17;;;;;;;9.23;59.22;103006.78;5156653;28;20417;-43
2021/12/20 11:00:22;;;;;;;13.47;3.10;;;;;;;9.30;58.97;103020.47;5157008;28;20507;-45
2021/12/20 11:03:19;;;;;;;10.67;2.90;;;;;;;9.24;59.11;103011.97;5150370;28;20434;-44
2021/12/20 11:09:06;;;;;;;12.82;3.25;;;;;;;9.08;59.49;103015.56;5117002;28;20927;-44
2021/12/20 11:11:41;;;;;;;11.35;3.00;;;;;;;9.07;59.35;103019.97;5149829;28;20513;-44
2021/12/20 11:14:27;;;;;;;6.38;3.00;;;;;;;9.16;59.23;103015.97;5156607;28;20946;-44
2021/12/20 11:17:00;;;;;;;11.48;3.40;;;;;;;9.19;59.09;103018.41;5148270;28;20930;-45
2021/12/20 11:19:34;;;;;;;9.75;3.20;;;;;;;9.06;59.09;103010.38;5155065;28;20456;-44
2021/12/20 11:22:09;;;;;;;8.40;3.33;;;;;;;9.03;59.29;103023.72;5155433;28;20439;-47
2021/12/20 11:24:49;;;;;;;7.55;3.10;;;;;;;8.98;59.27;103015.22;5151375;28;20759;-46
2021/12/20 11:27:26;;;;;;;7.43;2.60;;;;;;;8.97;59.04;103008.25;5146223;28;20418;-43
2021/12/20 11:30:01;;;;;;;9.10;3.47;;;;;;;9.06;58.95;103012.16;5155126;28;20796;-46
2021/12/20 11:32:34;;;;;;;11.43;3.40;;;;;;;9.05;58.99;103008.69;5149199;28;20428;-44
2021/12/20 11:35:07;;;;;;;9.13;2.92;;;;;;;9.04;58.92;103006.09;5154434;28;20929;-43
2021/12/20 11:37:39;;;;;;;11.27;3.17;;;;;;;9.08;58.81;103011.13;5158583;28;20842;-43
2021/12/20 11:40:17;;;;;;;9.27;2.80;;;;;;;9.08;58.70;103007.66;5149365;28;20438;-44
2021/12/20 11:42:50;;;;;;;12.43;3.40;;;;;;;9.03;58.67;102989.44;5142028;28;20406;-42
2021/12/20 11:45:23;;;;;;;7.30;2.83;;;;;;;9.14;58.63;103010.78;5149751;28;20894;-43
2021/12/20 11:48:03;;;;;;;7.90;3.13;;;;;;;9.21;58.56;103004.22;5152275;28;20543;-43
2021/12/20 11:50:39;;;;;;;9.60;3.67;;;;;;;9.20;58.48;103014.88;5162761;28;21024;-43
2021/12/20 11:53:14;;;;;;;14.23;3.85;;;;;;;9.15;58.64;102995.81;5160788;28;20463;-44
2021/12/20 11:55:51;;;;;;;10.63;3.33;;;;;;;9.20;58.49;102999.91;5163879;28;20427;-44
2021/12/20 11:58:26;;;;;;;7.95;2.90;;;;;;;9.17;58.68;103004.50;5154648;28;20433;-46
2021/12/20 12:01:01;;;;;;;8.90;3.08;;;;;;;9.23;58.54;103005.00;5158499;28;20968;-44
2021/12/20 12:03:35;;;;;;;8.40;2.90;;;;;;;9.26;58.51;103000.47;5160984;28;20424;-45
2021/12/20 12:06:10;;;;;;;11.10;4.03;;;;;;;9.28;58.45;103003.88;5161893;28;20804;-45
2021/12/20 12:08:55;;;;;;;11.57;3.08;;;;;;;9.35;58.32;103007.84;5157959;28;20424;-44
2021/12/20 12:11:35;;;;;;;9.27;3.63;;;;;;;9.33;58.45;103004.47;5165768;28;20409;-44
2021/12/20 12:17:14;;;;;;;9.20;2.85;;;;;;;9.37;58.25;103006.81;5136323;28;20774;-44